createdAt,value
2023-02-08T00:01:26.905Z,59.89
2023-02-08T00:03:56.382Z,59.89
2023-02-08T00:06:24.787Z,59.76
2023-02-08T00:08:53.236Z,59.84
2023-02-08T00:11:23.079Z,59.80
2023-02-08T00:13:51.589Z,59.91
2023-02-08T00:16:20.195Z,60.11
2023-02-08T00:18:48.527Z,60.08
2023-02-08T00:21:19.085Z,59.99
2023-02-08T00:23:47.579Z,60.37
2023-02-08T00:26:16.944Z,60.58
2023-02-08T00:28:46.606Z,60.24
2023-02-08T00:31:15.015Z,60.35
2023-02-08T00:33:43.411Z,60.29
2023-02-08T00:36:12.831Z,60.15
2023-02-08T00:38:41.206Z,60.41
2023-02-08T00:41:09.566Z,60.36
2023-02-08T00:43:37.875Z,60.75
2023-02-08T00:46:12.623Z,60.81
2023-02-08T00:48:41.134Z,60.71
2023-02-08T00:51:12.993Z,60.56
2023-02-08T00:53:43.198Z,60.53
2023-02-08T00:56:15.810Z,60.44
2023-02-08T00:58:44.526Z,60.36
2023-02-08T01:01:14.622Z,60.56
2023-02-08T01:03:43.927Z,60.40
2023-02-08T01:06:15.442Z,60.92
2023-02-08T01:08:43.869Z,60.82
2023-02-08T01:11:15.240Z,60.71
2023-02-08T01:13:43.657Z,60.72
2023-02-08T01:16:15.667Z,60.39
2023-02-08T01:18:45.636Z,60.24
2023-02-08T01:21:16.682Z,60.45
2023-02-08T01:23:46.655Z,60.59
2023-02-08T01:26:16.134Z,60.50
2023-02-08T01:28:45.051Z,60.43
2023-02-08T01:31:16.823Z,60.56
2023-02-08T01:33:45.233Z,60.71
2023-02-08T01:36:14.131Z,60.65
2023-02-08T01:38:42.471Z,60.60
2023-02-08T01:41:17.473Z,60.66
2023-02-08T01:44:08.103Z,60.70
2023-02-08T01:46:39.949Z,60.76
2023-02-08T01:49:11.946Z,60.43
2023-02-08T01:51:46.475Z,60.35
2023-02-08T01:54:17.459Z,60.19
2023-02-08T01:56:46.668Z,60.59
2023-02-08T01:59:18.960Z,60.42
2023-02-08T02:01:51.998Z,60.35
2023-02-08T02:04:21.102Z,60.30
2023-02-08T02:06:53.842Z,60.39
2023-02-08T02:09:29.522Z,60.27
2023-02-08T02:11:58.942Z,60.55
2023-02-08T02:14:27.572Z,60.64
2023-02-08T02:17:00.241Z,60.76
2023-02-08T02:19:38.486Z,60.34
2023-02-08T02:22:24.974Z,60.19
2023-02-08T02:25:19.285Z,60.35
2023-02-08T02:28:28.963Z,60.33
2023-02-08T02:31:24.734Z,60.34
2023-02-08T02:34:05.729Z,60.06
2023-02-08T02:36:45.266Z,60.13
2023-02-08T02:39:22.027Z,60.14
2023-02-08T02:42:16.081Z,60.35
2023-02-08T02:44:55.833Z,60.37
2023-02-08T02:47:33.716Z,60.78
2023-02-08T02:50:07.841Z,60.65
2023-02-08T02:52:41.224Z,60.75
2023-02-08T02:55:14.534Z,61.04
2023-02-08T02:57:48.162Z,60.49
2023-02-08T03:00:22.656Z,60.69
2023-02-08T03:02:52.870Z,61.00
2023-02-08T03:05:21.175Z,60.75
2023-02-08T03:08:08.461Z,60.90
2023-02-08T03:10:55.275Z,60.61
2023-02-08T03:13:33.133Z,60.46
2023-02-08T03:16:08.135Z,60.45
2023-02-08T03:18:47.874Z,60.70
2023-02-08T03:21:21.853Z,60.51
2023-02-08T03:23:58.564Z,60.86
2023-02-08T03:26:35.949Z,61.03
2023-02-08T03:29:08.956Z,61.11
2023-02-08T03:31:44.586Z,60.76
2023-02-08T03:34:20.878Z,60.78
2023-02-08T03:36:51.776Z,61.01
2023-02-08T03:39:26.385Z,60.90
2023-02-08T03:41:59.871Z,60.50
2023-02-08T03:44:34.557Z,60.75
2023-02-08T03:47:08.412Z,60.74
2023-02-08T03:49:40.189Z,60.68
2023-02-08T03:52:11.300Z,60.79
2023-02-08T03:54:43.821Z,60.76
2023-02-08T03:57:18.453Z,61.10
2023-02-08T03:59:52.707Z,61.25
2023-02-08T04:02:23.868Z,61.32
2023-02-08T04:04:55.153Z,60.84
2023-02-08T04:07:23.664Z,60.88
2023-02-08T04:09:52.054Z,61.01
2023-02-08T04:12:20.467Z,60.77
2023-02-08T04:14:48.788Z,60.58
2023-02-08T04:17:17.283Z,61.01
2023-02-08T04:19:45.605Z,60.38
2023-02-08T04:22:17.572Z,60.62
2023-02-08T04:24:45.892Z,61.20
2023-02-08T04:27:14.271Z,61.18
2023-02-08T04:29:42.724Z,60.90
2023-02-08T04:32:11.765Z,60.62
2023-02-08T04:34:40.205Z,60.79
2023-02-08T04:37:09.180Z,60.58
2023-02-08T04:39:39.267Z,60.92
2023-02-08T04:42:07.774Z,60.54
2023-02-08T04:44:36.087Z,61.12
2023-02-08T04:47:04.496Z,60.85
2023-02-08T04:49:32.788Z,61.36
2023-02-08T04:52:01.209Z,61.15
2023-02-08T04:54:29.524Z,60.50
2023-02-08T04:56:59.236Z,60.63
2023-02-08T04:59:27.718Z,60.66
2023-02-08T05:01:56.124Z,60.84
2023-02-08T05:04:24.461Z,60.67
2023-02-08T05:06:52.741Z,60.68
2023-02-08T05:09:21.205Z,60.46
2023-02-08T05:11:49.601Z,60.52
2023-02-08T05:14:19.351Z,60.54
2023-02-08T05:16:47.669Z,60.19
2023-02-08T05:19:15.985Z,60.13
2023-02-08T05:21:44.374Z,60.75
2023-02-08T05:24:12.955Z,60.45
2023-02-08T05:26:41.728Z,60.67
2023-02-08T05:29:10.677Z,60.58
2023-02-08T05:31:40.729Z,60.77
2023-02-08T05:34:09.126Z,60.63
2023-02-08T05:36:37.547Z,60.54
2023-02-08T05:39:06.244Z,60.56
2023-02-08T05:41:34.594Z,60.71
2023-02-08T05:44:02.922Z,60.90
2023-02-08T05:46:37.105Z,60.77
2023-02-08T05:49:08.181Z,60.50
2023-02-08T05:51:36.545Z,60.97
2023-02-08T05:54:04.905Z,60.52
2023-02-08T05:56:33.420Z,60.90
2023-02-08T05:59:02.285Z,60.24
2023-02-08T06:01:31.720Z,60.61
2023-02-08T06:04:00.659Z,60.24
2023-02-08T06:06:30.406Z,60.69
2023-02-08T06:08:58.756Z,60.54
2023-02-08T06:11:28.307Z,60.62
2023-02-08T06:13:57.004Z,60.83
2023-02-08T06:16:25.375Z,60.37
2023-02-08T06:18:53.733Z,60.83
2023-02-08T06:21:24.397Z,60.92
2023-02-08T06:23:54.293Z,60.43
2023-02-08T06:26:22.581Z,60.79
2023-02-08T06:28:50.876Z,60.61
2023-02-08T06:31:19.286Z,61.32
2023-02-08T06:33:47.638Z,60.79
2023-02-08T06:36:15.970Z,61.39
2023-02-08T06:38:44.324Z,61.41
2023-02-08T06:41:14.182Z,61.42
2023-02-08T06:43:42.936Z,60.94
2023-02-08T06:46:11.561Z,61.25
2023-02-08T06:48:39.951Z,60.79
2023-02-08T06:51:08.271Z,61.00
2023-02-08T06:53:36.649Z,61.25
2023-02-08T06:56:05.313Z,61.15
2023-02-08T06:58:34.957Z,60.72
2023-02-08T07:01:03.384Z,60.59
2023-02-08T07:03:31.722Z,60.62
2023-02-08T07:06:05.054Z,60.64
2023-02-08T07:08:34.639Z,60.71
2023-02-08T07:11:08.092Z,60.33
2023-02-08T07:13:38.803Z,60.34
2023-02-08T07:16:08.392Z,60.37
2023-02-08T07:18:37.462Z,60.09
2023-02-08T07:21:06.737Z,60.27
2023-02-08T07:23:35.105Z,60.44
2023-02-08T07:26:05.458Z,60.07
2023-02-08T07:28:34.201Z,60.34
2023-02-08T07:31:07.845Z,60.17
2023-02-08T07:33:36.242Z,60.33
2023-02-08T07:36:05.359Z,60.36
2023-02-08T07:38:34.620Z,60.73
2023-02-08T07:41:03.918Z,60.26
2023-02-08T07:43:34.531Z,60.63
2023-02-08T07:46:08.605Z,60.62
2023-02-08T07:48:40.023Z,60.43
2023-02-08T07:51:09.885Z,60.83
2023-02-08T07:53:38.625Z,61.03
2023-02-08T07:56:07.358Z,60.72
2023-02-08T07:58:36.082Z,60.75
2023-02-08T08:01:16.135Z,60.64
2023-02-08T08:03:51.704Z,60.77
2023-02-08T08:06:20.234Z,60.67
2023-02-08T08:08:48.550Z,60.52
2023-02-08T08:11:17.993Z,60.70
2023-02-08T08:13:46.678Z,60.40
2023-02-08T08:16:15.647Z,60.88
2023-02-08T08:18:44.161Z,60.66
2023-02-08T08:21:15.019Z,60.69
2023-02-08T08:23:46.974Z,60.75
2023-02-08T08:26:17.687Z,60.70
2023-02-08T08:28:47.304Z,60.86
2023-02-08T08:31:17.778Z,61.19
2023-02-08T08:33:46.740Z,60.89
2023-02-08T08:36:16.713Z,61.02
2023-02-08T08:38:45.027Z,60.88
2023-02-08T08:41:15.316Z,60.83
2023-02-08T08:43:43.854Z,60.92
2023-02-08T08:46:12.580Z,61.07
2023-02-08T08:48:41.020Z,61.01
2023-02-08T08:51:09.386Z,61.02
2023-02-08T08:53:39.116Z,61.00
2023-02-08T08:56:08.164Z,61.10
2023-02-08T08:58:36.654Z,61.00
2023-02-08T09:01:05.139Z,61.27
2023-02-08T09:03:33.701Z,61.08
2023-02-08T09:06:02.154Z,61.18
2023-02-08T09:08:30.521Z,61.13
2023-02-08T09:11:05.844Z,61.25
2023-02-08T09:13:34.441Z,61.27
2023-02-08T09:16:09.376Z,61.25
2023-02-08T09:18:37.757Z,61.05
2023-02-08T09:21:10.311Z,61.12
2023-02-08T09:23:38.983Z,61.30
2023-02-08T09:26:14.992Z,61.42
2023-02-08T09:28:43.431Z,61.44
2023-02-08T09:31:13.192Z,61.15
2023-02-08T09:33:42.014Z,61.25
2023-02-08T09:36:11.149Z,61.04
2023-02-08T09:38:40.370Z,61.01
2023-02-08T09:41:26.668Z,61.33
2023-02-08T09:44:06.534Z,61.50
2023-02-08T09:46:39.954Z,61.85
2023-02-08T09:49:16.508Z,61.41
2023-02-08T09:51:49.593Z,61.43
2023-02-08T09:54:21.889Z,62.08
2023-02-08T09:56:53.427Z,61.79
2023-02-08T09:59:26.823Z,61.94
2023-02-08T10:02:01.570Z,61.83
2023-02-08T10:04:39.233Z,62.03
2023-02-08T10:07:07.672Z,61.77
2023-02-08T10:09:35.993Z,62.02
2023-02-08T10:12:19.859Z,61.71
2023-02-08T10:15:03.381Z,62.17
2023-02-08T10:17:47.055Z,61.72
2023-02-08T10:20:26.845Z,62.03
2023-02-08T10:23:04.326Z,61.33
2023-02-08T10:25:48.048Z,61.39
2023-02-08T10:28:40.941Z,61.49
2023-02-08T10:31:17.867Z,61.31
2023-02-08T10:33:54.135Z,61.41
2023-02-08T10:36:27.145Z,61.12
2023-02-08T10:38:57.424Z,61.10
2023-02-08T10:41:32.422Z,60.94
2023-02-08T10:44:14.900Z,60.96
2023-02-08T10:46:48.877Z,60.78
2023-02-08T10:49:23.861Z,60.97
2023-02-08T10:51:52.869Z,60.58
2023-02-08T10:54:21.227Z,60.73
2023-02-08T10:56:54.015Z,60.63
2023-02-08T10:59:27.142Z,60.54
2023-02-08T11:01:57.413Z,60.29
2023-02-08T11:04:26.199Z,59.85
2023-02-08T11:06:54.950Z,59.82
2023-02-08T11:09:26.606Z,59.90
2023-02-08T11:11:56.501Z,59.39
2023-02-08T11:14:45.425Z,59.46
2023-02-08T11:17:28.128Z,59.18
2023-02-08T11:19:57.587Z,59.38
2023-02-08T11:22:28.937Z,59.53
2023-02-08T11:25:00.146Z,59.05
2023-02-08T11:27:34.092Z,58.92
2023-02-08T11:30:23.309Z,58.62
2023-02-08T11:33:18.436Z,58.49
2023-02-08T11:35:56.874Z,58.60
2023-02-08T11:38:28.254Z,58.60
2023-02-08T11:40:58.804Z,58.50
2023-02-08T11:43:29.825Z,58.11
2023-02-08T11:46:01.857Z,58.02
2023-02-08T11:48:42.011Z,58.02
2023-02-08T11:51:13.714Z,57.92
2023-02-08T11:53:47.401Z,58.00
2023-02-08T11:56:20.806Z,57.81
2023-02-08T11:59:03.537Z,57.35
2023-02-08T12:01:35.449Z,57.45
2023-02-08T12:04:06.537Z,57.25
2023-02-08T12:06:57.400Z,56.52
2023-02-08T12:09:43.774Z,56.57
2023-02-08T12:12:25.073Z,57.00
2023-02-08T12:15:05.884Z,56.60
2023-02-08T12:17:51.137Z,56.47
2023-02-08T12:20:39.134Z,56.53
2023-02-08T12:23:23.522Z,56.36
2023-02-08T12:26:02.311Z,56.59
2023-02-08T12:28:43.492Z,56.36
2023-02-08T12:31:20.406Z,56.23
2023-02-08T12:34:02.958Z,56.37
2023-02-08T12:36:49.289Z,56.32
2023-02-08T12:39:52.014Z,56.41
2023-02-08T12:42:42.773Z,55.75
2023-02-08T12:45:58.480Z,55.58
2023-02-08T12:48:41.551Z,56.04
2023-02-08T12:51:21.819Z,56.17
2023-02-08T12:53:55.099Z,56.02
2023-02-08T12:56:28.494Z,55.84
2023-02-08T12:59:12.823Z,55.42
2023-02-08T13:01:45.887Z,55.44
2023-02-08T13:04:19.496Z,55.46
2023-02-08T13:06:53.863Z,55.55
2023-02-08T13:09:38.079Z,55.12
2023-02-08T13:12:15.541Z,55.42
2023-02-08T13:14:47.709Z,55.17
2023-02-08T13:17:20.645Z,54.77
2023-02-08T13:20:00.903Z,54.87
2023-02-08T13:22:40.938Z,55.26
2023-02-08T13:25:17.838Z,54.79
2023-02-08T13:27:46.580Z,55.01
2023-02-08T13:30:20.128Z,55.22
2023-02-08T13:32:51.734Z,54.90
2023-02-08T13:35:25.092Z,54.87
2023-02-08T13:38:01.799Z,55.06
2023-02-08T13:40:33.017Z,54.76
2023-02-08T13:43:34.941Z,54.47
2023-02-08T13:46:05.417Z,54.42
2023-02-08T13:48:45.075Z,54.29
2023-02-08T13:51:55.728Z,54.01
2023-02-08T13:54:25.641Z,54.12
2023-02-08T13:56:54.709Z,54.38
2023-02-08T13:59:33.709Z,54.19
2023-02-08T14:02:27.058Z,53.55
2023-02-08T14:05:20.505Z,54.13
2023-02-08T14:07:49.983Z,53.84
2023-02-08T14:10:37.533Z,53.44
2023-02-08T14:13:17.325Z,53.48
2023-02-08T14:15:46.198Z,53.33
2023-02-08T14:18:27.640Z,53.23
2023-02-08T14:21:04.155Z,53.02
2023-02-08T14:23:38.817Z,52.87
2023-02-08T14:26:20.775Z,53.37
2023-02-08T14:28:55.935Z,53.12
2023-02-08T14:31:38.906Z,53.11
2023-02-08T14:34:08.033Z,52.99
2023-02-08T14:36:37.425Z,53.34
2023-02-08T14:39:23.976Z,52.51
2023-02-08T14:41:57.272Z,52.95
2023-02-08T14:45:05.645Z,52.47
2023-02-08T14:48:07.955Z,52.43
2023-02-08T14:50:44.461Z,52.61
2023-02-08T14:53:24.309Z,52.14
2023-02-08T14:55:59.184Z,52.09
2023-02-08T14:58:32.114Z,52.75
2023-02-08T15:01:05.796Z,52.09
2023-02-08T15:03:36.031Z,52.36
2023-02-08T15:07:00.188Z,52.69
2023-02-08T15:09:31.346Z,53.05
2023-02-08T15:12:03.004Z,53.48
2023-02-08T15:14:36.438Z,53.59
2023-02-08T15:17:04.823Z,53.63
2023-02-08T15:19:35.792Z,53.31
2023-02-08T15:22:33.062Z,53.06
2023-02-08T15:25:05.679Z,53.47
2023-02-08T15:27:35.267Z,53.60
2023-02-08T15:30:05.607Z,53.79
2023-02-08T15:32:34.810Z,53.37
2023-02-08T15:35:05.228Z,53.60
2023-02-08T15:37:35.158Z,53.30
2023-02-08T15:40:04.883Z,53.51
2023-02-08T15:42:34.997Z,53.74
2023-02-08T15:45:05.237Z,53.49
2023-02-08T15:47:36.239Z,53.70
2023-02-08T15:50:07.827Z,53.78
2023-02-08T15:52:39.509Z,53.67
2023-02-08T15:55:08.983Z,53.62
2023-02-08T15:57:44.087Z,53.71
2023-02-08T16:00:18.918Z,53.83
2023-02-08T16:02:53.142Z,54.01
2023-02-08T16:05:24.422Z,53.89
2023-02-08T16:07:53.896Z,54.03
2023-02-08T16:10:26.712Z,54.00
2023-02-08T16:12:58.551Z,54.09
2023-02-08T16:15:45.005Z,54.14
2023-02-08T16:18:40.680Z,54.04
2023-02-08T16:21:27.915Z,53.88
2023-02-08T16:23:58.670Z,54.03
2023-02-08T16:26:29.198Z,54.19
2023-02-08T16:29:00.463Z,54.09
2023-02-08T16:31:32.873Z,54.30
2023-02-08T16:34:04.360Z,54.31
2023-02-08T16:36:36.979Z,54.26
2023-02-08T16:39:39.331Z,54.28
2023-02-08T16:42:21.259Z,54.47
2023-02-08T16:45:12.910Z,54.55
2023-02-08T16:47:44.367Z,54.80
2023-02-08T16:50:15.016Z,54.91
2023-02-08T16:52:43.627Z,55.03
2023-02-08T16:55:23.990Z,54.67
2023-02-08T16:57:53.799Z,55.03
2023-02-08T17:00:26.983Z,55.08
2023-02-08T17:02:57.312Z,55.37
2023-02-08T17:05:28.279Z,55.30
2023-02-08T17:07:57.106Z,55.06
2023-02-08T17:10:29.010Z,55.16
2023-02-08T17:13:13.437Z,55.18
2023-02-08T17:15:46.260Z,55.08
2023-02-08T17:18:16.240Z,55.37
2023-02-08T17:20:44.936Z,55.59
2023-02-08T17:23:15.476Z,55.41
2023-02-08T17:25:44.415Z,55.31
2023-02-08T17:28:18.309Z,55.74
2023-02-08T17:30:47.899Z,55.57
2023-02-08T17:33:21.138Z,55.50
2023-02-08T17:35:51.039Z,55.50
2023-02-08T17:38:20.727Z,55.67
2023-02-08T17:40:49.562Z,55.95
2023-02-08T17:43:17.902Z,55.88
2023-02-08T17:45:46.557Z,55.63
2023-02-08T17:48:15.375Z,56.04
2023-02-08T17:50:50.783Z,55.99
2023-02-08T17:53:19.930Z,55.60
2023-02-08T17:55:48.724Z,55.85
2023-02-08T17:58:17.732Z,55.90
2023-02-08T18:00:46.366Z,56.06
2023-02-08T18:03:17.226Z,55.87
2023-02-08T18:05:46.979Z,56.45
2023-02-08T18:08:17.201Z,56.23
2023-02-08T18:10:45.671Z,56.09
2023-02-08T18:13:14.101Z,56.25
2023-02-08T18:15:43.119Z,56.55
2023-02-08T18:18:11.721Z,56.26
2023-02-08T18:20:44.322Z,56.14
2023-02-08T18:23:14.700Z,56.57
2023-02-08T18:25:43.365Z,56.25
2023-02-08T18:28:15.118Z,56.63
2023-02-08T18:30:43.921Z,56.57
2023-02-08T18:33:13.652Z,56.40
2023-02-08T18:35:42.366Z,56.74
2023-02-08T18:38:10.945Z,57.21
2023-02-08T18:40:41.283Z,57.31
2023-02-08T18:43:09.608Z,57.48
2023-02-08T18:45:37.944Z,57.23
2023-02-08T18:48:06.482Z,57.24
2023-02-08T18:50:34.863Z,57.34
2023-02-08T18:53:03.459Z,57.31
2023-02-08T18:55:32.046Z,57.59
2023-02-08T18:58:01.805Z,57.61
2023-02-08T19:00:30.150Z,57.91
2023-02-08T19:02:58.634Z,57.70
2023-02-08T19:05:27.497Z,58.23
2023-02-08T19:07:55.848Z,58.07
2023-02-08T19:10:24.317Z,57.80
2023-02-08T19:12:52.924Z,57.92
2023-02-08T19:15:22.712Z,57.88
2023-02-08T19:17:51.349Z,57.78
2023-02-08T19:20:20.371Z,58.11
2023-02-08T19:22:49.087Z,58.41
2023-02-08T19:25:17.555Z,58.61
2023-02-08T19:27:49.987Z,58.29
2023-02-08T19:30:20.027Z,58.41
2023-02-08T19:32:49.761Z,58.31
2023-02-08T19:35:18.373Z,58.08
2023-02-08T19:37:50.225Z,58.21
2023-02-08T19:40:19.614Z,58.20
2023-02-08T19:42:48.947Z,58.32
2023-02-08T19:45:17.499Z,58.12
2023-02-08T19:47:51.443Z,58.17
2023-02-08T19:50:21.714Z,58.54
2023-02-08T19:52:50.122Z,58.61
2023-02-08T19:55:18.742Z,58.82
2023-02-08T19:57:47.284Z,58.77
2023-02-08T20:00:23.377Z,58.98
2023-02-08T20:02:52.712Z,59.26
2023-02-08T20:05:22.495Z,59.05
2023-02-08T20:07:50.906Z,58.96
2023-02-08T20:10:19.342Z,58.84
2023-02-08T20:12:47.864Z,59.04
2023-02-08T20:15:16.824Z,58.81
2023-02-08T20:17:45.699Z,58.68
2023-02-08T20:20:14.342Z,58.76
2023-02-08T20:22:45.910Z,58.91
2023-02-08T20:25:14.977Z,58.98
2023-02-08T20:27:43.320Z,58.91
2023-02-08T20:30:12.859Z,58.77
2023-02-08T20:32:41.514Z,58.68
2023-02-08T20:35:09.975Z,58.81
2023-02-08T20:37:38.706Z,58.95
2023-02-08T20:40:10.809Z,59.06
2023-02-08T20:42:39.676Z,59.07
2023-02-08T20:45:09.757Z,58.81
2023-02-08T20:47:46.381Z,59.14
2023-02-08T20:50:19.039Z,59.18
2023-02-08T20:52:49.110Z,59.29
2023-02-08T20:55:19.194Z,59.49
2023-02-08T20:57:47.577Z,59.37
2023-02-08T21:00:16.452Z,59.63
2023-02-08T21:02:46.145Z,59.52
2023-02-08T21:05:14.575Z,59.47
2023-02-08T21:07:43.041Z,59.45
2023-02-08T21:10:11.501Z,59.29
2023-02-08T21:12:41.222Z,59.29
2023-02-08T21:15:11.265Z,59.19
2023-02-08T21:17:41.083Z,59.13
2023-02-08T21:20:12.088Z,59.29
2023-02-08T21:22:40.540Z,59.32
2023-02-08T21:25:10.074Z,59.26
2023-02-08T21:27:38.574Z,59.36
2023-02-08T21:30:09.348Z,59.27
2023-02-08T21:32:48.551Z,59.22
2023-02-08T21:35:17.666Z,59.40
2023-02-08T21:37:46.016Z,59.52
2023-02-08T21:40:14.524Z,59.51
2023-02-08T21:42:43.653Z,59.49
2023-02-08T21:45:13.571Z,59.92
2023-02-08T21:47:42.303Z,59.93
2023-02-08T21:50:29.265Z,59.85
2023-02-08T21:53:15.418Z,59.78
2023-02-08T21:55:46.956Z,59.64
2023-02-08T21:58:15.548Z,59.60
2023-02-08T22:00:45.970Z,59.55
2023-02-08T22:03:18.731Z,59.81
2023-02-08T22:06:05.295Z,59.87
2023-02-08T22:08:33.986Z,59.78
2023-02-08T22:11:04.820Z,60.10
2023-02-08T22:13:33.823Z,60.10
2023-02-08T22:16:09.684Z,60.15
2023-02-08T22:18:41.512Z,59.74
2023-02-08T22:21:10.284Z,59.77
2023-02-08T22:23:38.906Z,59.54
2023-02-08T22:26:11.233Z,59.55
2023-02-08T22:28:39.710Z,59.66
2023-02-08T22:31:10.029Z,59.85
2023-02-08T22:33:38.801Z,60.05
2023-02-08T22:36:08.399Z,59.85
2023-02-08T22:38:37.233Z,59.86
2023-02-08T22:41:10.826Z,60.09
2023-02-08T22:43:39.809Z,60.02
2023-02-08T22:46:09.995Z,60.00
2023-02-08T22:48:38.590Z,59.96
2023-02-08T22:51:08.300Z,60.36
2023-02-08T22:53:36.879Z,60.18
2023-02-08T22:56:05.805Z,60.22
2023-02-08T22:58:35.096Z,60.49
2023-02-08T23:01:03.586Z,60.21
2023-02-08T23:03:33.306Z,60.22
2023-02-08T23:06:01.638Z,60.14
2023-02-08T23:08:30.058Z,60.23
2023-02-08T23:11:01.912Z,60.13
2023-02-08T23:13:31.135Z,60.13
2023-02-08T23:15:59.773Z,60.32
2023-02-08T23:18:28.270Z,60.32
2023-02-08T23:20:57.994Z,60.41
2023-02-08T23:23:26.362Z,60.74
2023-02-08T23:25:54.677Z,60.78
2023-02-08T23:28:23.906Z,60.79
2023-02-08T23:30:52.328Z,60.62
2023-02-08T23:33:20.660Z,60.77
2023-02-08T23:35:49.135Z,60.98
2023-02-08T23:38:18.846Z,61.02
2023-02-08T23:40:47.420Z,60.79
2023-02-08T23:43:15.887Z,61.16
2023-02-08T23:45:44.198Z,61.04
2023-02-08T23:48:12.569Z,61.02
2023-02-08T23:50:41.169Z,60.86
2023-02-08T23:53:09.489Z,60.99
2023-02-08T23:55:39.157Z,60.77
2023-02-08T23:58:07.488Z,61.00
